createdAt,value
2023-03-08T00:01:02.988Z,13.68
2023-03-08T00:03:29.398Z,13.77
2023-03-08T00:05:55.805Z,13.60
2023-03-08T00:08:22.265Z,13.95
2023-03-08T00:10:48.668Z,13.50
2023-03-08T00:13:15.049Z,14.25
2023-03-08T00:15:41.494Z,13.75
2023-03-08T00:18:07.973Z,13.45
2023-03-08T00:20:34.422Z,14.27
2023-03-08T00:23:00.832Z,12.77
2023-03-08T00:25:27.270Z,14.30
2023-03-08T00:27:53.672Z,13.25
2023-03-08T00:30:21.321Z,12.73
2023-03-08T00:32:47.774Z,14.00
2023-03-08T00:35:14.620Z,13.60
2023-03-08T00:37:41.069Z,12.15
2023-03-08T00:40:08.250Z,12.75
2023-03-08T00:42:34.820Z,13.60
2023-03-08T00:45:01.240Z,12.38
2023-03-08T00:47:27.730Z,13.35
2023-03-08T00:49:54.363Z,12.32
2023-03-08T00:52:20.815Z,12.70
2023-03-08T00:54:47.270Z,13.43
2023-03-08T00:57:13.645Z,12.98
2023-03-08T00:59:40.041Z,13.15
2023-03-08T01:02:06.737Z,13.25
2023-03-08T01:04:33.937Z,12.00
2023-03-08T01:07:01.341Z,14.48
2023-03-08T01:09:28.076Z,12.63
2023-03-08T01:11:54.443Z,13.30
2023-03-08T01:14:20.820Z,12.90
2023-03-08T01:16:47.433Z,13.57
2023-03-08T01:19:13.856Z,13.52
2023-03-08T01:21:41.651Z,13.45
2023-03-08T01:24:08.226Z,13.35
2023-03-08T01:26:34.994Z,13.88
2023-03-08T01:29:01.427Z,12.40
2023-03-08T01:31:30.086Z,13.95
2023-03-08T01:33:58.126Z,13.82
2023-03-08T01:36:27.161Z,13.18
2023-03-08T01:38:53.760Z,13.82
2023-03-08T01:41:26.931Z,14.23
2023-03-08T01:43:54.517Z,13.82
2023-03-08T01:46:35.781Z,13.55
2023-03-08T01:49:25.873Z,13.27
2023-03-08T01:52:14.126Z,14.43
2023-03-08T01:54:47.061Z,13.90
2023-03-08T01:57:28.070Z,14.80
2023-03-08T01:59:58.471Z,14.35
2023-03-08T02:02:29.670Z,14.93
2023-03-08T02:04:56.642Z,14.63
2023-03-08T02:07:24.112Z,14.57
2023-03-08T02:09:50.990Z,14.05
2023-03-08T02:12:17.743Z,14.90
2023-03-08T02:14:45.158Z,14.68
2023-03-08T02:17:12.449Z,14.45
2023-03-08T02:19:48.404Z,15.15
2023-03-08T02:22:16.904Z,15.13
2023-03-08T02:24:43.640Z,14.70
2023-03-08T02:27:25.949Z,14.27
2023-03-08T02:29:54.180Z,16.13
2023-03-08T02:32:23.109Z,14.05
2023-03-08T02:34:49.883Z,15.05
2023-03-08T02:37:16.263Z,15.40
2023-03-08T02:39:42.656Z,15.73
2023-03-08T02:42:09.056Z,14.90
2023-03-08T02:44:35.463Z,15.65
2023-03-08T02:47:01.987Z,15.23
2023-03-08T02:49:28.396Z,15.43
2023-03-08T02:51:54.819Z,16.15
2023-03-08T02:54:21.264Z,16.08
2023-03-08T02:56:47.611Z,15.65
2023-03-08T02:59:14.242Z,15.75
2023-03-08T03:01:43.379Z,15.80
2023-03-08T03:04:09.834Z,15.15
2023-03-08T03:06:36.567Z,14.85
2023-03-08T03:09:09.679Z,15.10
2023-03-08T03:11:37.061Z,15.18
2023-03-08T03:14:03.807Z,14.82
2023-03-08T03:16:36.678Z,15.20
2023-03-08T03:19:03.707Z,13.30
2023-03-08T03:21:30.587Z,14.98
2023-03-08T03:23:58.529Z,13.90
2023-03-08T03:26:33.137Z,14.90
2023-03-08T03:29:00.156Z,14.15
2023-03-08T03:31:31.587Z,14.57
2023-03-08T03:33:58.710Z,14.68
2023-03-08T03:36:26.908Z,14.40
2023-03-08T03:38:53.320Z,14.27
2023-03-08T03:41:23.089Z,14.20
2023-03-08T03:43:58.891Z,13.95
2023-03-08T03:46:25.474Z,13.65
2023-03-08T03:48:54.466Z,13.27
2023-03-08T03:51:23.256Z,12.57
2023-03-08T03:53:58.453Z,12.82
2023-03-08T03:56:27.735Z,12.07
2023-03-08T03:58:58.347Z,11.55
2023-03-08T04:01:30.290Z,11.20
2023-03-08T04:04:15.005Z,11.55
2023-03-08T04:06:43.905Z,11.18
2023-03-08T04:09:16.396Z,10.95
2023-03-08T04:11:45.814Z,11.35
2023-03-08T04:14:17.254Z,11.00
2023-03-08T04:16:43.870Z,11.15
2023-03-08T04:19:18.499Z,10.90
2023-03-08T04:21:51.154Z,11.60
2023-03-08T04:24:19.893Z,12.45
2023-03-08T04:26:50.078Z,10.82
2023-03-08T04:29:19.263Z,10.88
2023-03-08T04:31:46.098Z,11.23
2023-03-08T04:34:16.068Z,10.23
2023-03-08T04:36:45.863Z,11.10
2023-03-08T04:39:12.975Z,10.52
2023-03-08T04:41:39.455Z,10.95
2023-03-08T04:44:20.006Z,11.18
2023-03-08T04:46:50.201Z,11.73
2023-03-08T04:51:54.505Z,12.93
2023-03-08T04:54:22.422Z,13.77
2023-03-08T04:56:55.011Z,15.75
2023-03-08T04:59:24.255Z,16.02
2023-03-08T05:01:52.927Z,19.83
2023-03-08T05:04:20.819Z,20.95
2023-03-08T05:06:47.202Z,20.27
2023-03-08T05:09:19.147Z,20.95
2023-03-08T05:11:49.032Z,20.63
2023-03-08T05:14:16.131Z,21.55
2023-03-08T05:16:43.132Z,21.33
2023-03-08T05:19:10.448Z,22.05
2023-03-08T05:21:44.470Z,21.95
2023-03-08T05:24:11.054Z,22.88
2023-03-08T05:26:39.126Z,23.42
2023-03-08T05:29:06.700Z,24.00
2023-03-08T05:31:36.454Z,23.52
2023-03-08T05:34:04.854Z,24.23
2023-03-08T05:36:36.540Z,22.65
2023-03-08T05:39:04.368Z,24.10
2023-03-08T05:41:37.999Z,22.23
2023-03-08T05:44:05.456Z,23.70
2023-03-08T05:46:34.200Z,24.10
2023-03-08T05:49:02.221Z,23.75
2023-03-08T05:51:32.886Z,23.23
2023-03-08T05:54:00.199Z,24.05
2023-03-08T05:56:27.137Z,23.73
2023-03-08T05:59:01.160Z,23.77
2023-03-08T06:01:28.988Z,25.40
2023-03-08T06:04:03.153Z,24.10
2023-03-08T06:06:34.986Z,23.55
2023-03-08T06:09:04.151Z,23.20
2023-03-08T06:11:32.399Z,22.92
2023-03-08T06:13:59.981Z,23.90
2023-03-08T06:16:29.948Z,24.10
2023-03-08T06:18:56.567Z,22.85
2023-03-08T06:21:24.289Z,22.55
2023-03-08T06:23:57.846Z,22.73
2023-03-08T06:26:24.284Z,20.58
2023-03-08T06:28:51.108Z,20.23
2023-03-08T06:31:18.783Z,19.75
2023-03-08T06:33:45.852Z,19.50
2023-03-08T06:36:19.697Z,17.90
2023-03-08T06:38:47.809Z,17.35
2023-03-08T06:41:16.593Z,15.43
2023-03-08T06:43:45.667Z,14.45
2023-03-08T06:46:16.768Z,13.20
2023-03-08T06:48:43.840Z,12.25
2023-03-08T06:51:10.340Z,11.77
2023-03-08T06:53:39.446Z,9.65
2023-03-08T06:56:09.693Z,9.70
2023-03-08T06:58:37.113Z,9.40
2023-03-08T07:01:05.521Z,10.02
2023-03-08T07:03:33.058Z,9.05
2023-03-08T07:06:01.199Z,9.23
2023-03-08T07:08:27.720Z,8.77
2023-03-08T07:10:54.209Z,9.20
2023-03-08T07:13:23.426Z,8.07
2023-03-08T07:15:51.017Z,7.70
2023-03-08T07:18:17.943Z,7.35
2023-03-08T07:20:45.227Z,6.55
2023-03-08T07:23:11.831Z,7.40
2023-03-08T07:25:42.026Z,7.57
2023-03-08T07:28:08.418Z,7.35
2023-03-08T07:30:34.845Z,7.97
2023-03-08T07:33:01.468Z,7.80
2023-03-08T07:35:28.002Z,7.10
2023-03-08T07:37:54.401Z,6.85
2023-03-08T07:40:21.123Z,7.18
2023-03-08T07:42:47.657Z,7.25
2023-03-08T07:45:27.269Z,7.03
2023-03-08T07:47:53.626Z,6.15
2023-03-08T07:50:21.301Z,6.50
2023-03-08T07:52:48.703Z,7.30
2023-03-08T07:55:15.579Z,7.00
2023-03-08T07:57:41.982Z,6.50
2023-03-08T08:00:09.099Z,6.93
2023-03-08T08:02:41.294Z,6.60
2023-03-08T08:05:08.150Z,6.85
2023-03-08T08:07:34.589Z,6.97
2023-03-08T08:10:00.964Z,6.50
2023-03-08T08:12:27.392Z,6.10
2023-03-08T08:14:53.953Z,6.43
2023-03-08T08:17:21.134Z,5.65
2023-03-08T08:19:48.685Z,5.45
2023-03-08T08:22:15.195Z,4.93
2023-03-08T08:24:41.652Z,5.47
2023-03-08T08:27:08.048Z,5.68
2023-03-08T08:29:34.467Z,6.43
2023-03-08T08:32:02.193Z,5.43
2023-03-08T08:34:28.614Z,5.38
2023-03-08T08:36:55.059Z,5.70
2023-03-08T08:39:21.443Z,4.75
2023-03-08T08:41:49.675Z,4.60
2023-03-08T08:44:16.143Z,4.25
2023-03-08T08:46:42.553Z,3.97
2023-03-08T08:49:10.327Z,3.70
2023-03-08T08:51:36.715Z,4.07
2023-03-08T08:54:03.813Z,3.65
2023-03-08T08:56:30.369Z,3.80
2023-03-08T08:59:01.299Z,4.28
2023-03-08T09:01:31.256Z,4.93
2023-03-08T09:03:59.186Z,5.57
2023-03-08T09:06:26.507Z,5.47
2023-03-08T09:08:55.692Z,6.20
2023-03-08T09:11:23.522Z,5.47
2023-03-08T09:13:50.570Z,4.95
2023-03-08T09:16:22.761Z,4.55
2023-03-08T09:18:49.538Z,4.90
2023-03-08T09:21:16.887Z,4.60
2023-03-08T09:23:43.907Z,4.30
2023-03-08T09:26:11.394Z,4.68
2023-03-08T09:28:37.777Z,4.60
2023-03-08T09:31:12.603Z,4.85
2023-03-08T09:33:41.581Z,5.50
2023-03-08T09:36:08.727Z,6.88
2023-03-08T09:38:36.467Z,7.82
2023-03-08T09:41:21.590Z,7.55
2023-03-08T09:43:56.872Z,7.47
2023-03-08T09:46:30.514Z,6.95
2023-03-08T09:51:34.032Z,7.13
2023-03-08T09:54:06.908Z,7.30
2023-03-08T09:56:39.087Z,7.35
2023-03-08T09:59:24.467Z,7.13
2023-03-08T10:01:59.781Z,7.78
2023-03-08T10:05:12.376Z,6.80
2023-03-08T10:07:53.439Z,6.40
2023-03-08T10:10:49.235Z,5.80
2023-03-08T10:13:27.734Z,5.88
2023-03-08T10:16:35.489Z,5.90
2023-03-08T10:19:27.021Z,6.28
2023-03-08T10:21:56.043Z,6.10
2023-03-08T10:24:39.480Z,7.03
2023-03-08T10:27:31.393Z,7.85
2023-03-08T10:30:01.005Z,8.43
2023-03-08T10:32:28.915Z,7.88
2023-03-08T10:35:04.909Z,7.88
2023-03-08T10:37:33.483Z,8.10
2023-03-08T10:40:05.331Z,7.82
2023-03-08T10:42:33.291Z,7.88
2023-03-08T10:45:02.920Z,7.90
2023-03-08T10:47:36.214Z,7.93
2023-03-08T10:50:08.478Z,8.20
2023-03-08T10:52:35.397Z,8.50
2023-03-08T10:55:23.423Z,9.20
2023-03-08T10:58:01.793Z,8.77
2023-03-08T11:00:34.576Z,8.13
2023-03-08T11:03:16.826Z,7.97
2023-03-08T11:05:53.969Z,7.07
2023-03-08T11:08:25.145Z,6.70
2023-03-08T11:11:09.897Z,6.60
2023-03-08T11:13:46.671Z,6.90
2023-03-08T11:16:44.067Z,7.80
2023-03-08T11:19:22.733Z,8.13
2023-03-08T11:22:03.709Z,7.82
2023-03-08T11:24:39.884Z,7.93
2023-03-08T11:27:26.728Z,7.53
2023-03-08T11:30:05.168Z,8.02
2023-03-08T11:33:03.149Z,8.23
2023-03-08T11:35:44.393Z,7.63
2023-03-08T11:38:17.711Z,8.10
2023-03-08T11:43:24.859Z,7.55
2023-03-08T11:46:05.381Z,8.23
2023-03-08T11:48:56.878Z,8.20
2023-03-08T11:51:38.207Z,7.07
2023-03-08T11:54:34.901Z,7.43
2023-03-08T11:57:05.267Z,7.43
2023-03-08T11:59:39.806Z,6.95
2023-03-08T12:02:06.105Z,7.63
2023-03-08T12:05:07.233Z,7.68
2023-03-08T12:07:45.678Z,7.93
2023-03-08T12:10:18.150Z,8.75
2023-03-08T12:12:54.648Z,8.57
2023-03-08T12:15:29.796Z,8.60
2023-03-08T12:18:04.897Z,9.43
2023-03-08T12:20:36.441Z,9.40
2023-03-08T12:23:27.536Z,9.75
2023-03-08T12:26:19.278Z,10.27
2023-03-08T12:28:56.506Z,9.40
2023-03-08T12:31:29.351Z,9.95
2023-03-08T12:33:58.361Z,9.20
2023-03-08T12:36:44.312Z,7.82
2023-03-08T12:39:34.680Z,9.00
2023-03-08T12:42:10.189Z,8.43
2023-03-08T12:44:37.989Z,9.23
2023-03-08T12:47:13.660Z,8.40
2023-03-08T12:49:42.883Z,8.57
2023-03-08T12:52:18.149Z,9.25
2023-03-08T12:54:59.061Z,8.30
2023-03-08T12:57:30.328Z,8.57
2023-03-08T13:00:00.377Z,8.77
2023-03-08T13:02:31.355Z,8.68
2023-03-08T13:05:19.417Z,9.88
2023-03-08T13:08:01.544Z,10.32
2023-03-08T13:10:35.309Z,10.50
2023-03-08T13:13:20.456Z,11.02
2023-03-08T13:16:06.777Z,12.13
2023-03-08T13:18:33.262Z,12.43
2023-03-08T13:21:35.476Z,13.60
2023-03-08T13:24:15.746Z,14.43
2023-03-08T13:27:21.316Z,15.50
2023-03-08T13:29:48.197Z,17.77
2023-03-08T13:32:20.382Z,18.67
2023-03-08T13:35:03.647Z,18.98
2023-03-08T13:37:31.978Z,18.65
2023-03-08T13:40:00.041Z,20.27
2023-03-08T13:42:28.603Z,21.40
2023-03-08T13:45:09.652Z,20.00
2023-03-08T13:47:39.408Z,20.02
2023-03-08T13:50:06.311Z,23.30
2023-03-08T13:52:36.202Z,22.27
2023-03-08T13:55:06.175Z,22.75
2023-03-08T13:57:36.555Z,23.73
2023-03-08T14:00:27.050Z,24.02
2023-03-08T14:02:53.833Z,23.80
2023-03-08T14:05:43.815Z,25.98
2023-03-08T14:08:21.809Z,24.90
2023-03-08T14:10:52.306Z,26.80
2023-03-08T14:13:34.119Z,26.05
2023-03-08T14:16:05.401Z,25.85
2023-03-08T14:18:34.147Z,25.73
2023-03-08T14:21:17.511Z,26.92
2023-03-08T14:23:53.530Z,26.13
2023-03-08T14:26:38.066Z,25.52
2023-03-08T14:29:21.669Z,25.83
2023-03-08T14:34:22.178Z,25.95
2023-03-08T14:36:55.564Z,25.85
2023-03-08T14:41:49.646Z,25.35
2023-03-08T14:44:25.555Z,25.13
2023-03-08T14:46:58.368Z,24.88
2023-03-08T14:49:28.390Z,25.60
2023-03-08T14:51:55.544Z,22.73
2023-03-08T14:54:34.232Z,24.77
2023-03-08T14:57:15.941Z,24.13
2023-03-08T14:59:43.239Z,22.30
2023-03-08T15:02:12.640Z,21.77
2023-03-08T15:04:39.946Z,21.90
2023-03-08T15:07:06.795Z,22.55
2023-03-08T15:09:33.546Z,24.30
2023-03-08T15:12:01.418Z,23.23
2023-03-08T15:14:28.753Z,23.63
2023-03-08T15:16:55.226Z,24.75
2023-03-08T15:19:21.708Z,24.40
2023-03-08T15:21:48.537Z,23.45
2023-03-08T15:24:17.486Z,24.48
2023-03-08T15:26:44.979Z,25.08
2023-03-08T15:29:28.580Z,25.55
2023-03-08T15:34:22.737Z,24.00
2023-03-08T15:36:50.184Z,24.80
2023-03-08T15:39:17.606Z,25.70
2023-03-08T15:41:44.076Z,24.38
2023-03-08T15:44:10.803Z,24.85
2023-03-08T15:46:37.337Z,25.75
2023-03-08T15:49:04.391Z,25.77
2023-03-08T15:51:34.667Z,24.08
2023-03-08T15:54:01.982Z,23.45
2023-03-08T15:56:28.404Z,24.95
2023-03-08T15:58:55.483Z,23.98
2023-03-08T16:01:24.264Z,23.50
2023-03-08T16:03:55.618Z,25.25
2023-03-08T16:06:24.849Z,25.58
2023-03-08T16:08:51.295Z,26.65
2023-03-08T16:11:22.060Z,25.35
2023-03-08T16:13:52.658Z,26.10
2023-03-08T16:16:20.444Z,26.73
2023-03-08T16:18:46.973Z,28.77
2023-03-08T16:21:13.420Z,28.00
2023-03-08T16:23:41.593Z,30.80
2023-03-08T16:26:16.824Z,31.08
2023-03-08T16:28:46.504Z,31.08
2023-03-08T16:31:14.223Z,31.55
2023-03-08T16:33:40.735Z,34.15
2023-03-08T16:36:07.719Z,34.40
2023-03-08T16:38:34.246Z,33.70
2023-03-08T16:41:12.168Z,35.65
2023-03-08T16:43:46.824Z,35.90
2023-03-08T16:46:16.517Z,36.70
2023-03-08T16:48:43.411Z,34.55
2023-03-08T16:51:14.164Z,35.65
2023-03-08T16:53:40.657Z,34.97
2023-03-08T16:56:07.441Z,32.65
2023-03-08T16:58:33.898Z,31.70
2023-03-08T17:01:00.311Z,29.73
2023-03-08T17:03:26.774Z,29.33
2023-03-08T17:05:53.224Z,29.52
2023-03-08T17:08:19.605Z,29.75
2023-03-08T17:10:46.002Z,28.95
2023-03-08T17:13:12.445Z,29.25
2023-03-08T17:15:42.976Z,27.77
2023-03-08T17:18:10.348Z,28.08
2023-03-08T17:20:41.686Z,27.35
2023-03-08T17:23:10.261Z,28.17
2023-03-08T17:25:40.876Z,28.55
2023-03-08T17:28:08.335Z,27.85
2023-03-08T17:30:35.770Z,27.13
2023-03-08T17:33:02.125Z,29.08
2023-03-08T17:35:28.564Z,26.60
2023-03-08T17:37:54.971Z,27.83
2023-03-08T17:40:21.625Z,26.45
2023-03-08T17:42:48.084Z,26.75
2023-03-08T17:45:15.797Z,27.02
2023-03-08T17:47:42.701Z,25.95
2023-03-08T17:50:12.835Z,25.45
2023-03-08T17:52:40.195Z,24.27
2023-03-08T17:55:06.823Z,23.90
2023-03-08T17:57:35.496Z,23.95
2023-03-08T18:00:01.993Z,23.90
2023-03-08T18:02:30.464Z,23.60
2023-03-08T18:04:56.905Z,24.23
2023-03-08T18:07:27.510Z,24.05
2023-03-08T18:09:53.893Z,23.98
2023-03-08T18:12:20.694Z,23.48
2023-03-08T18:14:50.556Z,24.08
2023-03-08T18:17:17.281Z,24.15
2023-03-08T18:19:43.672Z,24.17
2023-03-08T18:22:10.156Z,23.50
2023-03-08T18:24:36.514Z,23.92
2023-03-08T18:27:05.357Z,24.23
2023-03-08T18:29:33.823Z,23.70
2023-03-08T18:32:00.503Z,24.38
2023-03-08T18:34:27.696Z,24.42
2023-03-08T18:36:58.721Z,23.67
2023-03-08T18:39:26.994Z,24.75
2023-03-08T18:41:56.625Z,23.83
2023-03-08T18:44:24.556Z,23.58
2023-03-08T18:46:51.011Z,24.98
2023-03-08T18:49:17.902Z,24.60
2023-03-08T18:51:44.557Z,25.38
2023-03-08T18:54:13.953Z,25.85
2023-03-08T18:56:40.761Z,27.30
2023-03-08T18:59:07.564Z,26.63
2023-03-08T19:01:34.164Z,26.67
2023-03-08T19:04:03.919Z,27.67
2023-03-08T19:06:30.305Z,28.67
2023-03-08T19:08:56.990Z,28.58
2023-03-08T19:11:25.737Z,28.27
2023-03-08T19:13:52.858Z,27.70
2023-03-08T19:16:23.318Z,27.58
2023-03-08T19:18:52.311Z,28.98
2023-03-08T19:21:22.308Z,28.75
2023-03-08T19:23:48.870Z,29.65
2023-03-08T19:26:36.121Z,27.95
2023-03-08T19:29:08.839Z,29.20
2023-03-08T19:31:42.024Z,29.75
2023-03-08T19:34:10.222Z,29.95
2023-03-08T19:36:37.801Z,31.50
2023-03-08T19:39:07.000Z,32.05
2023-03-08T19:41:33.674Z,30.88
2023-03-08T19:44:00.913Z,32.88
2023-03-08T19:46:27.339Z,33.55
2023-03-08T19:48:54.684Z,33.40
2023-03-08T19:51:21.340Z,33.95
2023-03-08T19:53:47.806Z,32.88
2023-03-08T19:56:17.260Z,34.70
2023-03-08T19:58:44.391Z,34.17
2023-03-08T20:01:12.959Z,33.25
2023-03-08T20:03:39.435Z,35.28
2023-03-08T20:06:06.338Z,32.70
2023-03-08T20:08:33.970Z,34.38
2023-03-08T20:11:00.368Z,34.97
2023-03-08T20:13:27.932Z,35.85
2023-03-08T20:15:55.206Z,33.72
2023-03-08T20:18:21.723Z,34.88
2023-03-08T20:20:48.198Z,35.00
2023-03-08T20:23:14.553Z,33.75
2023-03-08T20:25:43.606Z,35.90
2023-03-08T20:28:10.464Z,34.95
2023-03-08T20:30:38.270Z,34.22
2023-03-08T20:33:05.199Z,34.20
2023-03-08T20:35:31.664Z,33.85
2023-03-08T20:37:58.216Z,36.08
2023-03-08T20:40:24.593Z,34.30
2023-03-08T20:42:51.017Z,35.80
2023-03-08T20:45:17.928Z,34.53
2023-03-08T20:47:44.386Z,36.28
2023-03-08T20:50:11.518Z,35.78
2023-03-08T20:52:38.058Z,35.35
2023-03-08T20:55:04.879Z,34.67
2023-03-08T20:57:31.328Z,35.25
2023-03-08T20:59:57.693Z,36.80
2023-03-08T21:02:24.089Z,36.65
2023-03-08T21:04:50.525Z,35.85
2023-03-08T21:07:16.937Z,35.58
2023-03-08T21:09:44.458Z,36.63
2023-03-08T21:12:11.161Z,37.28
2023-03-08T21:14:37.548Z,36.78
2023-03-08T21:17:03.927Z,36.42
2023-03-08T21:19:30.301Z,36.50
2023-03-08T21:21:56.702Z,37.55
2023-03-08T21:24:23.126Z,37.90
2023-03-08T21:26:50.358Z,38.83
2023-03-08T21:29:18.928Z,38.55
2023-03-08T21:31:48.876Z,40.00
2023-03-08T21:34:16.136Z,38.97
2023-03-08T21:36:42.868Z,40.30
2023-03-08T21:39:09.560Z,39.15
2023-03-08T21:41:38.005Z,42.38
2023-03-08T21:44:09.159Z,40.83
2023-03-08T21:46:37.009Z,40.50
2023-03-08T21:49:03.938Z,39.75
2023-03-08T21:51:30.377Z,39.60
2023-03-08T21:53:57.925Z,41.05
2023-03-08T21:56:24.701Z,39.17
2023-03-08T21:58:51.129Z,39.45
2023-03-08T22:01:20.366Z,38.20
2023-03-08T22:03:47.122Z,37.05
2023-03-08T22:06:13.529Z,37.30
2023-03-08T22:08:40.042Z,36.55
2023-03-08T22:11:06.419Z,37.00
2023-03-08T22:13:33.191Z,37.88
2023-03-08T22:15:59.672Z,36.28
2023-03-08T22:18:26.361Z,35.15
2023-03-08T22:20:55.908Z,35.30
2023-03-08T22:23:22.511Z,34.65
2023-03-08T22:25:48.949Z,33.72
2023-03-08T22:28:15.397Z,33.83
2023-03-08T22:30:42.205Z,34.75
2023-03-08T22:33:08.831Z,32.35
2023-03-08T22:35:35.519Z,32.20
2023-03-08T22:38:02.020Z,33.10
2023-03-08T22:40:28.411Z,34.40
2023-03-08T22:42:54.808Z,34.10
2023-03-08T22:45:21.661Z,32.42
2023-03-08T22:47:48.166Z,33.42
2023-03-08T22:50:14.534Z,34.70
2023-03-08T22:52:40.904Z,33.60
2023-03-08T22:55:07.699Z,34.72
2023-03-08T22:57:36.857Z,34.63
2023-03-08T23:00:14.043Z,33.97
2023-03-08T23:02:45.709Z,35.22
2023-03-08T23:05:17.136Z,34.40
2023-03-08T23:07:43.572Z,34.05
2023-03-08T23:10:11.120Z,35.38
2023-03-08T23:12:37.597Z,35.42
2023-03-08T23:15:05.748Z,32.90
2023-03-08T23:17:32.193Z,32.45
2023-03-08T23:19:59.104Z,33.72
2023-03-08T23:22:25.569Z,33.08
2023-03-08T23:24:52.061Z,33.50
2023-03-08T23:27:18.614Z,32.80
2023-03-08T23:29:45.046Z,33.28
2023-03-08T23:32:11.539Z,32.45
2023-03-08T23:34:38.084Z,31.35
2023-03-08T23:37:04.598Z,33.13
2023-03-08T23:39:32.301Z,32.25
2023-03-08T23:41:58.743Z,33.38
2023-03-08T23:44:25.351Z,34.40
2023-03-08T23:46:52.262Z,33.10
2023-03-08T23:49:18.994Z,32.65
2023-03-08T23:51:45.428Z,31.88
2023-03-08T23:54:12.144Z,34.40
2023-03-08T23:56:40.057Z,34.45
2023-03-08T23:59:21.202Z,33.00
